createdAt,value
2022-10-02T00:00:17.359Z,1.77
2022-10-02T00:06:16.489Z,1.40
2022-10-02T00:12:06.289Z,1.40
2022-10-02T00:17:56.529Z,2.67
2022-10-02T00:23:51.367Z,2.00
2022-10-02T00:29:57.868Z,2.13
2022-10-02T00:36:04.878Z,1.95
2022-10-02T00:41:51.408Z,1.50
2022-10-02T00:48:07.963Z,2.08
2022-10-02T00:54:04.287Z,2.17
2022-10-02T00:59:51.631Z,1.60
2022-10-02T01:05:38.641Z,1.50
2022-10-02T01:11:27.032Z,1.45
2022-10-02T01:17:29.797Z,1.67
2022-10-02T01:29:23.176Z,1.85
2022-10-02T01:35:13.103Z,1.10
2022-10-02T01:41:11.845Z,1.50
2022-10-02T01:47:07.829Z,1.38
2022-10-02T01:53:29.961Z,2.08
2022-10-02T01:59:55.794Z,1.60
2022-10-02T02:06:30.648Z,1.08
2022-10-02T02:12:50.183Z,1.73
2022-10-02T02:18:48.496Z,1.73
2022-10-02T02:24:47.547Z,1.67
2022-10-02T02:30:38.530Z,1.45
2022-10-02T02:36:32.967Z,1.55
2022-10-02T02:42:26.091Z,1.30
2022-10-02T02:48:26.661Z,1.38
2022-10-02T02:54:24.694Z,0.82
2022-10-02T03:00:15.597Z,1.52
2022-10-02T03:06:18.892Z,1.38
2022-10-02T03:12:26.831Z,1.38
2022-10-02T03:18:52.243Z,1.10
2022-10-02T03:25:01.291Z,1.33
2022-10-02T03:30:48.714Z,1.25
2022-10-02T03:36:36.097Z,1.20
2022-10-02T03:42:25.906Z,1.40
2022-10-02T03:48:12.507Z,1.08
2022-10-02T03:53:59.192Z,1.70
2022-10-02T04:00:02.433Z,1.42
2022-10-02T04:05:55.252Z,1.42
2022-10-02T04:11:49.855Z,1.52
2022-10-02T04:18:06.134Z,1.10
2022-10-02T04:24:04.438Z,1.52
2022-10-02T04:29:55.945Z,1.95
2022-10-02T04:36:03.813Z,1.05
2022-10-02T04:42:02.508Z,0.85
2022-10-02T04:48:33.526Z,1.25
2022-10-02T04:54:38.382Z,1.77
2022-10-02T05:00:26.855Z,1.00
2022-10-02T05:06:31.998Z,1.25
2022-10-02T05:12:40.209Z,1.20
2022-10-02T05:18:35.586Z,1.30
2022-10-02T05:24:46.735Z,0.98
2022-10-02T05:31:00.124Z,1.08
2022-10-02T05:36:57.504Z,2.03
2022-10-02T05:43:12.575Z,0.90
2022-10-02T05:49:05.673Z,1.15
2022-10-02T05:55:18.328Z,1.02
2022-10-02T06:01:14.556Z,1.45
2022-10-02T06:07:06.891Z,1.08
2022-10-02T06:13:13.810Z,1.10
2022-10-02T06:19:12.788Z,1.40
2022-10-02T06:25:11.656Z,2.10
2022-10-02T06:31:22.282Z,1.40
2022-10-02T06:37:22.492Z,1.25
2022-10-02T06:43:09.663Z,1.35
2022-10-02T06:49:18.655Z,2.28
2022-10-02T06:55:08.662Z,1.45
2022-10-02T07:01:32.959Z,1.20
2022-10-02T07:07:22.961Z,2.35
2022-10-02T07:21:49.050Z,1.80
2022-10-02T07:28:01.600Z,2.10
2022-10-02T07:34:03.510Z,1.75
2022-10-02T07:40:51.074Z,1.67
2022-10-02T07:47:31.599Z,1.67
2022-10-02T08:33:58.802Z,1.60
2022-10-02T08:48:57.642Z,1.20
2022-10-02T08:55:18.065Z,1.85
2022-10-02T09:01:26.720Z,2.42
2022-10-02T09:07:51.722Z,1.67
2022-10-02T09:13:42.480Z,2.15
2022-10-02T09:20:17.238Z,1.92
2022-10-02T09:26:17.106Z,1.85
2022-10-02T09:32:43.570Z,2.30
2022-10-02T09:39:09.745Z,1.60
2022-10-02T09:45:15.225Z,2.10
2022-10-02T09:51:42.604Z,1.85
2022-10-02T09:57:47.911Z,1.67
2022-10-02T10:04:12.853Z,1.70
2022-10-02T10:10:00.151Z,2.30
2022-10-02T10:16:08.140Z,1.35
2022-10-02T10:22:32.627Z,1.70
2022-10-02T10:28:38.818Z,1.73
2022-10-02T10:35:05.428Z,1.70
2022-10-02T10:41:22.741Z,2.22
2022-10-02T10:47:20.156Z,1.52
2022-10-02T10:53:35.949Z,2.10
2022-10-02T10:59:36.081Z,1.50
2022-10-02T11:05:39.640Z,1.70
2022-10-02T11:11:44.997Z,1.25
2022-10-02T11:17:48.326Z,1.83
2022-10-02T11:24:06.013Z,1.65
2022-10-02T11:30:14.648Z,1.75
2022-10-02T11:36:41.601Z,1.02
2022-10-02T11:42:58.154Z,1.00
2022-10-02T11:49:10.521Z,1.40
2022-10-02T11:55:22.009Z,1.52
2022-10-02T12:01:28.020Z,1.20
2022-10-02T12:07:29.444Z,0.90
2022-10-02T12:13:47.198Z,1.30
2022-10-02T12:19:39.128Z,1.45
2022-10-02T12:25:53.505Z,1.10
2022-10-02T12:31:57.478Z,1.75
2022-10-02T12:38:08.612Z,1.02
2022-10-02T12:44:37.287Z,1.73
2022-10-02T12:50:48.120Z,0.90
2022-10-02T12:56:35.742Z,0.75
2022-10-02T13:02:56.156Z,0.85
2022-10-02T13:09:06.729Z,1.20
2022-10-02T13:15:04.502Z,1.02
2022-10-02T13:20:57.410Z,1.38
2022-10-02T13:26:52.754Z,0.85
2022-10-02T13:33:05.999Z,0.82
2022-10-02T13:39:10.787Z,1.05
2022-10-02T13:45:06.606Z,0.77
2022-10-02T13:51:06.181Z,1.05
2022-10-02T13:57:07.593Z,0.80
2022-10-02T14:03:02.308Z,0.98
2022-10-02T14:09:16.893Z,1.10
2022-10-02T14:15:19.867Z,1.60
2022-10-02T14:21:20.527Z,1.00
2022-10-02T14:27:16.914Z,1.05
2022-10-02T14:33:16.759Z,0.93
2022-10-02T14:39:28.834Z,1.33
2022-10-02T14:45:24.646Z,1.07
2022-10-02T14:51:33.371Z,0.98
2022-10-02T14:57:38.601Z,0.90
2022-10-02T15:03:41.175Z,1.48
2022-10-02T15:09:34.822Z,0.77
2022-10-02T15:15:45.742Z,1.00
2022-10-02T15:21:50.186Z,1.15
2022-10-02T15:27:42.934Z,1.00
2022-10-02T15:33:42.513Z,1.05
2022-10-02T15:39:32.214Z,0.93
2022-10-02T15:45:33.521Z,0.93
2022-10-02T15:51:39.053Z,0.88
2022-10-02T15:57:34.316Z,1.13
2022-10-02T16:03:27.657Z,1.23
2022-10-02T16:09:24.223Z,1.30
2022-10-02T16:15:23.441Z,1.13
2022-10-02T16:21:31.209Z,1.00
2022-10-02T16:27:20.689Z,1.13
2022-10-02T16:33:20.242Z,1.10
2022-10-02T16:39:41.727Z,0.88
2022-10-02T16:45:50.338Z,1.10
2022-10-02T16:52:00.915Z,1.35
2022-10-02T16:57:54.632Z,1.30
2022-10-02T17:04:29.404Z,0.98
2022-10-02T17:10:22.281Z,2.58
2022-10-02T17:16:26.280Z,1.80
2022-10-02T17:22:33.688Z,2.10
2022-10-02T17:28:46.579Z,2.83
2022-10-02T17:34:49.120Z,1.48
2022-10-02T17:40:57.708Z,4.22
2022-10-02T17:46:59.060Z,7.90
2022-10-02T17:53:10.978Z,3.20
2022-10-02T17:59:32.142Z,2.75
2022-10-02T18:05:32.662Z,3.03
2022-10-02T18:11:53.284Z,3.70
2022-10-02T18:17:58.973Z,2.58
2022-10-02T18:24:04.283Z,2.85
2022-10-02T18:30:31.590Z,2.92
2022-10-02T18:36:36.054Z,4.35
2022-10-02T18:43:15.207Z,2.80
2022-10-02T18:49:27.056Z,3.22
2022-10-02T18:55:41.905Z,3.15
2022-10-02T19:01:34.149Z,3.13
2022-10-02T19:07:59.498Z,2.28
2022-10-02T19:13:49.070Z,6.72
2022-10-02T19:19:37.007Z,4.10
2022-10-02T19:25:24.126Z,2.35
2022-10-02T19:31:13.350Z,2.40
2022-10-02T19:37:23.048Z,16.33
2022-10-02T19:43:37.473Z,7.93
2022-10-02T19:49:30.935Z,6.22
2022-10-02T19:55:29.376Z,5.03
2022-10-02T20:01:20.417Z,5.30
2022-10-02T20:07:16.724Z,5.75
2022-10-02T20:13:24.591Z,5.13
2022-10-02T20:19:18.663Z,4.68
2022-10-02T20:25:28.897Z,4.90
2022-10-02T20:31:26.368Z,5.05
2022-10-02T20:37:17.326Z,5.80
2022-10-02T20:43:22.769Z,6.18
2022-10-02T20:49:46.528Z,5.82
2022-10-02T20:55:56.450Z,5.68
2022-10-02T21:02:01.348Z,6.25
2022-10-02T21:08:14.556Z,5.63
2022-10-02T21:14:32.320Z,7.40
2022-10-02T21:20:56.414Z,6.05
2022-10-02T21:27:09.699Z,5.00
2022-10-02T21:33:10.233Z,4.78
2022-10-02T21:39:34.078Z,3.75
2022-10-02T21:45:55.187Z,4.80
2022-10-02T21:51:53.608Z,3.75
2022-10-02T21:58:26.341Z,4.00
2022-10-02T22:04:20.074Z,3.60
2022-10-02T22:10:17.824Z,4.32
2022-10-02T22:16:17.072Z,3.88
2022-10-02T22:22:24.669Z,3.63
2022-10-02T22:28:36.700Z,3.83
2022-10-02T22:34:39.460Z,3.60
2022-10-02T22:40:30.110Z,3.47
2022-10-02T22:46:47.822Z,4.05
2022-10-02T22:52:52.668Z,4.70
2022-10-02T22:59:08.395Z,3.65
2022-10-02T23:05:12.923Z,3.03
2022-10-02T23:11:18.474Z,3.95
2022-10-02T23:17:55.015Z,2.38
2022-10-02T23:24:03.228Z,3.00
2022-10-02T23:29:53.423Z,2.67
2022-10-02T23:35:54.281Z,2.75
2022-10-02T23:41:47.678Z,3.25
2022-10-02T23:47:52.966Z,2.42
2022-10-02T23:54:18.594Z,2.72
